createdAt,value
2023-05-13T00:01:57.942Z,12.40
2023-05-13T00:04:25.604Z,12.50
2023-05-13T00:06:52.454Z,12.50
2023-05-13T00:09:20.053Z,12.50
2023-05-13T00:11:47.224Z,12.40
2023-05-13T00:14:14.658Z,12.40
2023-05-13T00:16:43.416Z,12.40
2023-05-13T00:19:10.734Z,12.30
2023-05-13T00:21:37.793Z,12.30
2023-05-13T00:24:06.804Z,12.30
2023-05-13T00:26:33.818Z,12.40
2023-05-13T00:29:01.157Z,12.40
2023-05-13T00:31:28.765Z,12.40
2023-05-13T00:33:55.988Z,12.40
2023-05-13T00:36:23.311Z,12.30
2023-05-13T00:38:50.682Z,12.40
2023-05-13T00:41:17.774Z,12.30
2023-05-13T00:43:45.043Z,12.40
2023-05-13T00:46:11.797Z,12.30
2023-05-13T00:48:39.221Z,12.30
2023-05-13T00:51:06.665Z,12.30
2023-05-13T00:53:34.717Z,12.30
2023-05-13T00:56:02.134Z,12.30
2023-05-13T00:58:29.059Z,12.20
2023-05-13T01:01:21.608Z,12.20
2023-05-13T01:04:14.903Z,12.20
2023-05-13T01:06:57.093Z,12.10
2023-05-13T01:09:36.285Z,12.00
2023-05-13T01:12:09.175Z,12.00
2023-05-13T01:14:40.449Z,12.00
2023-05-13T01:17:22.137Z,12.00
2023-05-13T01:19:52.652Z,12.00
2023-05-13T01:22:19.866Z,12.00
2023-05-13T01:24:47.518Z,12.00
2023-05-13T01:27:14.335Z,12.00
2023-05-13T01:29:41.797Z,11.90
2023-05-13T01:32:09.844Z,11.90
2023-05-13T01:34:37.261Z,11.90
2023-05-13T01:37:04.749Z,11.90
2023-05-13T01:39:31.904Z,11.90
2023-05-13T01:42:03.414Z,11.90
2023-05-13T01:44:31.487Z,11.80
2023-05-13T01:47:00.391Z,11.80
2023-05-13T01:49:28.045Z,11.80
2023-05-13T01:51:55.448Z,11.80
2023-05-13T01:54:22.300Z,11.80
2023-05-13T01:56:54.468Z,11.70
2023-05-13T01:59:21.609Z,11.70
2023-05-13T02:01:49.179Z,11.70
2023-05-13T02:04:16.861Z,11.70
2023-05-13T02:06:44.343Z,11.60
2023-05-13T02:09:11.652Z,11.50
2023-05-13T02:11:40.253Z,11.30
2023-05-13T02:14:07.211Z,11.20
2023-05-13T02:16:34.719Z,11.10
2023-05-13T02:19:05.683Z,11.00
2023-05-13T02:21:32.701Z,10.90
2023-05-13T02:23:59.405Z,10.80
2023-05-13T02:26:26.809Z,10.80
2023-05-13T02:28:54.131Z,10.80
2023-05-13T02:31:21.771Z,10.70
2023-05-13T02:33:50.531Z,10.60
2023-05-13T02:36:17.792Z,10.50
2023-05-13T02:38:45.718Z,10.30
2023-05-13T02:41:15.535Z,10.20
2023-05-13T02:43:42.890Z,10.10
2023-05-13T02:46:10.619Z,10.10
2023-05-13T02:48:38.111Z,10.00
2023-05-13T02:51:05.888Z,10.00
2023-05-13T02:53:32.643Z,10.00
2023-05-13T02:56:04.791Z,10.00
2023-05-13T02:58:31.469Z,10.00
2023-05-13T03:00:59.880Z,9.90
2023-05-13T03:03:27.718Z,9.90
2023-05-13T03:05:54.893Z,9.80
2023-05-13T03:08:22.175Z,9.80
2023-05-13T03:10:49.505Z,9.80
2023-05-13T03:13:16.602Z,9.70
2023-05-13T03:15:44.554Z,9.60
2023-05-13T03:18:12.670Z,9.70
2023-05-13T03:20:40.489Z,9.60
2023-05-13T03:23:09.150Z,9.60
2023-05-13T03:25:36.224Z,9.60
2023-05-13T03:28:04.382Z,9.60
2023-05-13T03:30:36.681Z,9.60
2023-05-13T03:33:08.096Z,9.60
2023-05-13T03:35:36.052Z,9.70
2023-05-13T03:38:03.680Z,9.70
2023-05-13T03:40:31.729Z,9.80
2023-05-13T03:42:58.815Z,9.80
2023-05-13T03:45:25.907Z,9.80
2023-05-13T03:47:57.603Z,9.80
2023-05-13T03:50:25.614Z,9.70
2023-05-13T03:52:53.008Z,9.70
2023-05-13T03:55:22.139Z,9.60
2023-05-13T03:57:49.614Z,9.60
2023-05-13T04:00:20.132Z,9.60
2023-05-13T04:02:48.877Z,9.50
2023-05-13T04:05:16.561Z,9.50
2023-05-13T04:07:43.843Z,9.40
2023-05-13T04:10:15.226Z,9.50
2023-05-13T04:12:42.865Z,9.50
2023-05-13T04:15:11.225Z,9.60
2023-05-13T04:17:39.339Z,9.60
2023-05-13T04:20:10.200Z,9.60
2023-05-13T04:22:37.442Z,9.70
2023-05-13T04:25:05.576Z,9.70
2023-05-13T04:27:33.247Z,9.70
2023-05-13T04:30:11.220Z,9.60
2023-05-13T04:32:39.901Z,9.60
2023-05-13T04:35:08.417Z,9.60
2023-05-13T04:37:36.799Z,9.60
2023-05-13T04:40:09.959Z,9.60
2023-05-13T04:42:37.325Z,9.50
2023-05-13T04:45:06.490Z,9.60
2023-05-13T04:47:35.405Z,9.70
2023-05-13T04:50:02.660Z,9.70
2023-05-13T04:52:31.467Z,9.80
2023-05-13T04:54:58.605Z,9.90
2023-05-13T04:57:27.585Z,9.90
2023-05-13T04:59:54.825Z,9.90
2023-05-13T05:02:21.824Z,9.90
2023-05-13T05:04:49.637Z,9.90
2023-05-13T05:07:16.988Z,10.00
2023-05-13T05:09:44.271Z,10.10
2023-05-13T05:12:11.921Z,10.00
2023-05-13T05:14:41.434Z,10.10
2023-05-13T05:17:08.902Z,10.10
2023-05-13T05:19:36.530Z,10.20
2023-05-13T05:22:03.772Z,10.30
2023-05-13T05:24:31.556Z,10.40
2023-05-13T05:26:58.643Z,10.50
2023-05-13T05:29:25.977Z,10.60
2023-05-13T05:31:52.815Z,10.70
2023-05-13T05:34:21.723Z,10.80
2023-05-13T05:36:49.051Z,10.80
2023-05-13T05:39:16.199Z,10.80
2023-05-13T05:41:43.401Z,10.90
2023-05-13T05:44:13.614Z,10.90
2023-05-13T05:46:41.187Z,11.00
2023-05-13T05:49:09.251Z,11.00
2023-05-13T05:51:37.475Z,11.20
2023-05-13T05:54:28.506Z,11.20
2023-05-13T05:56:55.760Z,11.30
2023-05-13T05:59:22.877Z,11.30
2023-05-13T06:01:52.469Z,11.40
2023-05-13T06:04:22.560Z,11.40
2023-05-13T06:06:50.448Z,11.60
2023-05-13T06:09:17.544Z,11.80
2023-05-13T06:11:44.823Z,11.90
2023-05-13T06:14:12.531Z,12.00
2023-05-13T06:16:40.082Z,12.00
2023-05-13T06:19:07.622Z,12.10
2023-05-13T06:21:35.048Z,12.00
2023-05-13T06:24:03.267Z,12.00
2023-05-13T06:26:30.624Z,11.90
2023-05-13T06:29:48.645Z,12.00
2023-05-13T06:32:24.132Z,12.20
2023-05-13T06:34:53.989Z,12.50
2023-05-13T06:37:23.070Z,12.80
2023-05-13T06:39:49.904Z,13.00
2023-05-13T06:42:18.953Z,13.30
2023-05-13T06:44:54.166Z,13.60
2023-05-13T06:47:28.951Z,14.00
2023-05-13T06:49:55.748Z,14.40
2023-05-13T06:52:22.866Z,14.70
2023-05-13T06:54:49.978Z,14.80
2023-05-13T06:57:17.993Z,15.10
2023-05-13T06:59:45.002Z,15.20
2023-05-13T07:02:12.481Z,15.60
2023-05-13T07:04:39.796Z,15.60
2023-05-13T07:07:06.598Z,15.80
2023-05-13T07:09:36.995Z,16.20
2023-05-13T07:12:07.047Z,16.20
2023-05-13T07:14:34.534Z,16.10
2023-05-13T07:17:02.547Z,16.30
2023-05-13T07:19:29.861Z,16.40
2023-05-13T07:21:57.242Z,16.30
2023-05-13T07:24:24.087Z,16.20
2023-05-13T07:26:51.153Z,15.60
2023-05-13T07:29:18.285Z,15.60
2023-05-13T07:31:45.275Z,15.50
2023-05-13T07:34:13.319Z,15.40
2023-05-13T07:36:41.253Z,15.40
2023-05-13T07:39:08.755Z,15.60
2023-05-13T07:41:38.024Z,15.70
2023-05-13T07:44:05.926Z,15.60
2023-05-13T07:46:33.124Z,15.90
2023-05-13T07:48:59.921Z,16.00
2023-05-13T07:51:27.015Z,16.00
2023-05-13T07:54:01.620Z,16.10
2023-05-13T07:56:28.340Z,16.00
2023-05-13T07:58:55.204Z,16.10
2023-05-13T08:01:22.131Z,16.30
2023-05-13T08:03:53.156Z,16.50
2023-05-13T08:06:20.082Z,16.70
2023-05-13T08:08:47.413Z,16.70
2023-05-13T08:11:14.298Z,16.90
2023-05-13T08:13:41.575Z,16.90
2023-05-13T08:16:08.542Z,16.90
2023-05-13T08:18:35.605Z,17.20
2023-05-13T08:21:04.994Z,17.10
2023-05-13T08:23:44.115Z,17.40
2023-05-13T08:26:13.170Z,17.30
2023-05-13T08:28:42.360Z,17.60
2023-05-13T08:31:11.779Z,17.70
2023-05-13T08:33:40.088Z,17.90
2023-05-13T08:36:08.308Z,17.70
2023-05-13T08:38:35.361Z,17.70
2023-05-13T08:41:04.772Z,17.80
2023-05-13T08:43:32.725Z,17.50
2023-05-13T08:46:02.572Z,17.70
2023-05-13T08:48:31.370Z,17.70
2023-05-13T08:50:58.293Z,17.80
2023-05-13T08:53:26.571Z,17.60
2023-05-13T08:56:02.316Z,17.70
2023-05-13T08:58:29.204Z,17.90
2023-05-13T09:00:55.957Z,18.10
2023-05-13T09:03:30.314Z,18.20
2023-05-13T09:05:57.085Z,18.40
2023-05-13T09:08:23.837Z,18.70
2023-05-13T09:10:52.253Z,18.70
2023-05-13T09:13:19.282Z,18.90
2023-05-13T09:15:45.995Z,19.00
2023-05-13T09:18:14.755Z,18.90
2023-05-13T09:20:43.683Z,19.20
2023-05-13T09:23:11.153Z,19.40
2023-05-13T09:25:38.854Z,19.50
2023-05-13T09:28:07.608Z,19.60
2023-05-13T09:30:36.015Z,19.30
2023-05-13T09:33:13.563Z,19.20
2023-05-13T09:35:45.272Z,19.20
2023-05-13T09:38:16.098Z,19.40
2023-05-13T09:44:57.117Z,19.70
2023-05-13T09:52:22.760Z,19.90
2023-05-13T09:54:49.855Z,20.00
2023-05-13T09:57:17.547Z,20.10
2023-05-13T10:00:12.838Z,20.40
2023-05-13T10:02:45.034Z,20.40
2023-05-13T10:05:13.901Z,20.20
2023-05-13T10:07:40.805Z,20.50
2023-05-13T10:10:08.640Z,20.70
2023-05-13T10:12:36.318Z,21.10
2023-05-13T10:15:03.440Z,20.70
2023-05-13T10:17:30.752Z,20.20
2023-05-13T10:20:30.459Z,20.40
2023-05-13T10:23:07.922Z,20.50
2023-05-13T10:25:34.960Z,20.20
2023-05-13T10:28:03.353Z,20.40
2023-05-13T10:30:53.932Z,20.70
2023-05-13T10:33:21.227Z,20.80
2023-05-13T10:36:26.730Z,20.90
2023-05-13T10:39:00.953Z,21.00
2023-05-13T10:41:50.702Z,21.40
2023-05-13T10:44:21.614Z,21.80
2023-05-13T10:46:48.507Z,21.40
2023-05-13T10:49:18.047Z,21.70
2023-05-13T10:51:49.364Z,21.30
2023-05-13T10:54:20.278Z,21.40
2023-05-13T10:56:52.459Z,21.20
2023-05-13T10:59:19.283Z,21.50
2023-05-13T11:01:47.169Z,21.70
2023-05-13T11:04:18.133Z,21.20
2023-05-13T11:06:49.792Z,21.60
2023-05-13T11:09:30.440Z,21.70
2023-05-13T11:11:58.590Z,21.80
2023-05-13T11:14:26.893Z,22.00
2023-05-13T11:17:00.150Z,22.10
2023-05-13T11:19:30.106Z,21.70
2023-05-13T11:22:11.042Z,21.70
2023-05-13T11:24:38.315Z,21.60
2023-05-13T11:27:20.548Z,21.60
2023-05-13T11:29:52.104Z,21.70
2023-05-13T11:32:56.925Z,22.00
2023-05-13T11:35:31.559Z,22.20
2023-05-13T11:38:00.746Z,22.30
2023-05-13T11:40:34.967Z,22.60
2023-05-13T11:43:01.987Z,22.30
2023-05-13T11:45:29.655Z,21.60
2023-05-13T11:47:57.618Z,21.40
2023-05-13T11:50:27.111Z,21.90
2023-05-13T11:52:55.791Z,22.00
2023-05-13T11:55:34.186Z,21.80
2023-05-13T11:58:00.919Z,21.80
2023-05-13T12:00:27.608Z,20.90
2023-05-13T12:02:54.814Z,20.80
2023-05-13T12:05:22.185Z,20.30
2023-05-13T12:07:49.510Z,20.10
2023-05-13T12:10:16.618Z,19.90
2023-05-13T12:12:45.774Z,19.80
2023-05-13T12:15:19.652Z,19.80
2023-05-13T12:17:46.636Z,20.00
2023-05-13T12:20:22.814Z,20.10
2023-05-13T12:22:52.673Z,19.90
2023-05-13T12:25:37.593Z,20.00
2023-05-13T12:28:22.750Z,20.20
2023-05-13T12:30:54.076Z,20.10
2023-05-13T12:33:22.439Z,20.20
2023-05-13T12:35:50.931Z,20.50
2023-05-13T12:38:22.065Z,20.60
2023-05-13T12:40:49.729Z,20.60
2023-05-13T12:43:17.527Z,20.60
2023-05-13T12:45:45.799Z,20.90
2023-05-13T12:48:12.724Z,21.10
2023-05-13T12:50:41.357Z,21.40
2023-05-13T12:53:08.075Z,21.50
2023-05-13T12:55:40.354Z,21.30
2023-05-13T12:58:07.979Z,21.30
2023-05-13T13:00:34.775Z,21.40
2023-05-13T13:03:01.975Z,21.40
2023-05-13T13:05:28.999Z,21.30
2023-05-13T13:07:56.028Z,21.00
2023-05-13T13:10:23.002Z,20.70
2023-05-13T13:12:50.344Z,20.60
2023-05-13T13:15:17.167Z,20.50
2023-05-13T13:17:44.407Z,20.40
2023-05-13T13:20:12.691Z,20.20
2023-05-13T13:22:39.844Z,19.20
2023-05-13T13:25:07.992Z,18.20
2023-05-13T13:27:35.263Z,17.20
2023-05-13T13:30:02.239Z,16.80
2023-05-13T13:32:29.080Z,16.80
2023-05-13T13:34:58.053Z,16.80
2023-05-13T13:37:25.945Z,16.90
2023-05-13T13:39:53.366Z,17.00
2023-05-13T13:42:22.215Z,17.20
2023-05-13T13:44:50.937Z,17.30
2023-05-13T13:47:17.953Z,17.20
2023-05-13T13:49:44.676Z,17.30
2023-05-13T13:52:11.607Z,17.30
2023-05-13T13:54:38.414Z,17.50
2023-05-13T13:57:06.768Z,17.70
2023-05-13T13:59:33.657Z,17.80
2023-05-13T14:02:00.556Z,18.00
2023-05-13T14:04:28.226Z,18.10
2023-05-13T14:06:55.506Z,18.30
2023-05-13T14:09:22.417Z,18.40
2023-05-13T14:11:49.932Z,18.60
2023-05-13T14:14:16.692Z,18.70
2023-05-13T14:16:43.770Z,18.80
2023-05-13T14:19:11.555Z,18.90
2023-05-13T14:21:38.995Z,18.90
2023-05-13T14:24:08.604Z,19.00
2023-05-13T14:26:35.841Z,19.10
2023-05-13T14:29:03.110Z,19.20
2023-05-13T14:31:30.430Z,19.40
2023-05-13T14:33:58.414Z,19.40
2023-05-13T14:36:26.647Z,19.50
2023-05-13T14:38:54.604Z,19.30
2023-05-13T14:41:21.657Z,19.10
2023-05-13T14:43:48.826Z,18.80
2023-05-13T14:46:15.773Z,18.70
2023-05-13T14:48:43.006Z,18.70
2023-05-13T14:51:12.500Z,18.70
2023-05-13T14:53:39.907Z,18.70
2023-05-13T14:56:07.413Z,18.70
2023-05-13T14:58:34.161Z,18.70
2023-05-13T15:01:01.226Z,18.60
2023-05-13T15:03:28.355Z,18.50
2023-05-13T15:05:56.024Z,18.40
2023-05-13T15:08:23.391Z,18.40
2023-05-13T15:10:50.220Z,18.30
2023-05-13T15:13:18.807Z,18.40
2023-05-13T15:15:45.840Z,18.40
2023-05-13T15:18:13.192Z,18.40
2023-05-13T15:20:40.413Z,18.10
2023-05-13T15:23:07.364Z,18.00
2023-05-13T15:25:34.297Z,18.00
2023-05-13T15:28:01.684Z,17.90
2023-05-13T15:30:29.407Z,18.00
2023-05-13T15:32:56.307Z,17.90
2023-05-13T15:35:23.313Z,17.80
2023-05-13T15:37:50.423Z,17.60
2023-05-13T15:40:17.344Z,17.50
2023-05-13T15:42:44.139Z,17.40
2023-05-13T15:45:10.894Z,17.40
2023-05-13T15:47:38.358Z,17.40
2023-05-13T15:50:06.023Z,17.40
2023-05-13T15:52:32.955Z,17.40
2023-05-13T15:54:59.926Z,17.50
2023-05-13T15:57:27.994Z,17.60
2023-05-13T15:59:55.465Z,17.70
2023-05-13T16:02:22.215Z,17.80
2023-05-13T16:04:49.138Z,17.90
2023-05-13T16:07:16.295Z,18.00
2023-05-13T16:09:43.256Z,18.00
2023-05-13T16:12:10.922Z,18.00
2023-05-13T16:14:38.222Z,18.10
2023-05-13T16:17:05.599Z,18.10
2023-05-13T16:19:32.658Z,18.10
2023-05-13T16:21:59.813Z,18.00
2023-05-13T16:24:26.644Z,17.90
2023-05-13T16:26:53.395Z,17.80
2023-05-13T16:29:20.434Z,17.90
2023-05-13T16:31:47.838Z,17.90
2023-05-13T16:34:14.956Z,17.90
2023-05-13T16:36:42.167Z,17.80
2023-05-13T16:39:09.155Z,17.80
2023-05-13T16:41:36.480Z,17.80
2023-05-13T16:44:03.243Z,17.70
2023-05-13T16:46:35.694Z,17.70
2023-05-13T16:49:02.867Z,17.60
2023-05-13T16:51:30.642Z,17.70
2023-05-13T16:53:59.822Z,17.70
2023-05-13T16:56:26.808Z,17.80
2023-05-13T16:58:53.532Z,17.80
2023-05-13T17:01:20.460Z,17.60
2023-05-13T17:03:48.056Z,17.30
2023-05-13T17:06:15.772Z,16.90
2023-05-13T17:08:43.065Z,16.60
2023-05-13T17:11:16.065Z,16.40
2023-05-13T17:13:43.447Z,16.40
2023-05-13T17:16:11.057Z,16.40
2023-05-13T17:18:39.734Z,16.20
2023-05-13T17:21:06.995Z,16.00
2023-05-13T17:23:34.047Z,15.90
2023-05-13T17:26:00.801Z,15.90
2023-05-13T17:28:27.804Z,15.90
2023-05-13T17:30:54.756Z,15.80
2023-05-13T17:33:22.981Z,15.70
2023-05-13T17:35:49.756Z,15.70
2023-05-13T17:38:16.689Z,15.70
2023-05-13T17:40:44.250Z,15.60
2023-05-13T17:43:10.961Z,15.50
2023-05-13T17:45:41.632Z,15.60
2023-05-13T17:48:08.419Z,15.70
2023-05-13T17:50:35.282Z,15.70
2023-05-13T17:53:02.053Z,15.70
2023-05-13T17:55:29.774Z,15.80
2023-05-13T17:57:56.654Z,15.70
2023-05-13T18:00:24.412Z,15.80
2023-05-13T18:02:51.697Z,15.80
2023-05-13T18:05:18.765Z,15.90
2023-05-13T18:07:45.837Z,15.90
2023-05-13T18:10:13.195Z,15.90
2023-05-13T18:12:39.929Z,15.90
2023-05-13T18:15:07.121Z,15.90
2023-05-13T18:17:33.950Z,15.80
2023-05-13T18:20:00.692Z,15.80
2023-05-13T18:22:28.066Z,15.90
2023-05-13T18:24:55.197Z,15.90
2023-05-13T18:27:22.110Z,15.90
2023-05-13T18:29:48.862Z,15.80
2023-05-13T18:32:15.990Z,15.80
2023-05-13T18:34:42.713Z,15.60
2023-05-13T18:37:09.482Z,15.50
2023-05-13T18:39:36.596Z,15.50
2023-05-13T18:42:03.569Z,15.60
2023-05-13T18:44:30.619Z,15.50
2023-05-13T18:46:57.643Z,15.50
2023-05-13T18:49:25.661Z,15.50
2023-05-13T18:51:52.381Z,15.40
2023-05-13T18:54:19.686Z,15.30
2023-05-13T18:56:46.902Z,15.40
2023-05-13T18:59:14.240Z,15.30
2023-05-13T19:01:42.425Z,15.20
2023-05-13T19:04:12.467Z,15.20
2023-05-13T19:06:39.588Z,15.10
2023-05-13T19:09:06.348Z,15.20
2023-05-13T19:11:33.314Z,15.10
2023-05-13T19:14:00.052Z,15.10
2023-05-13T19:16:26.993Z,15.00
2023-05-13T19:18:53.828Z,15.00
2023-05-13T19:21:23.209Z,14.90
2023-05-13T19:23:50.667Z,14.80
2023-05-13T19:26:17.458Z,14.80
2023-05-13T19:28:45.219Z,14.80
2023-05-13T19:31:12.395Z,14.70
2023-05-13T19:33:39.454Z,14.70
2023-05-13T19:36:06.618Z,14.60
2023-05-13T19:38:34.137Z,14.50
2023-05-13T19:41:01.620Z,14.50
2023-05-13T19:43:28.558Z,14.50
2023-05-13T19:45:57.488Z,14.50
2023-05-13T19:48:24.442Z,14.40
2023-05-13T19:50:53.285Z,14.40
2023-05-13T19:53:21.794Z,14.30
2023-05-13T19:55:48.988Z,14.30
2023-05-13T19:58:16.050Z,14.30
2023-05-13T20:00:44.154Z,14.10
2023-05-13T20:03:11.445Z,14.20
2023-05-13T20:05:40.050Z,14.10
2023-05-13T20:08:07.158Z,14.00
2023-05-13T20:10:37.311Z,14.00
2023-05-13T20:13:04.929Z,14.00
2023-05-13T20:15:32.300Z,14.00
2023-05-13T20:17:59.240Z,13.90
2023-05-13T20:20:26.531Z,13.90
2023-05-13T20:22:53.254Z,13.80
2023-05-13T20:25:20.120Z,13.80
2023-05-13T20:27:47.371Z,13.80
2023-05-13T20:30:16.752Z,13.80
2023-05-13T20:32:43.742Z,13.90
2023-05-13T20:35:11.129Z,13.80
2023-05-13T20:37:38.013Z,13.80
2023-05-13T20:40:05.422Z,13.80
2023-05-13T20:42:33.702Z,13.80
2023-05-13T20:45:00.799Z,13.80
2023-05-13T20:47:27.924Z,13.70
2023-05-13T20:49:54.855Z,13.70
2023-05-13T20:52:22.181Z,13.70
2023-05-13T20:54:49.158Z,13.70
2023-05-13T20:57:16.106Z,13.60
2023-05-13T20:59:42.828Z,13.50
2023-05-13T21:02:09.872Z,13.60
2023-05-13T21:04:37.164Z,13.60
2023-05-13T21:07:04.984Z,13.70
2023-05-13T21:09:32.441Z,13.70
2023-05-13T21:11:59.101Z,13.60
2023-05-13T21:14:26.438Z,13.60
2023-05-13T21:16:55.798Z,13.50
2023-05-13T21:19:23.980Z,13.60
2023-05-13T21:21:51.165Z,13.50
2023-05-13T21:24:20.986Z,13.40
2023-05-13T21:26:49.162Z,13.30
2023-05-13T21:29:18.479Z,13.20
2023-05-13T21:31:46.732Z,13.00
2023-05-13T21:34:13.528Z,13.00
2023-05-13T21:36:41.301Z,13.00
2023-05-13T21:39:10.185Z,13.10
2023-05-13T21:41:37.665Z,13.00
2023-05-13T21:44:05.499Z,13.10
2023-05-13T21:46:32.507Z,13.10
2023-05-13T21:49:00.431Z,13.00
2023-05-13T21:51:27.423Z,13.00
2023-05-13T21:53:54.436Z,12.90
2023-05-13T21:56:22.115Z,12.80
2023-05-13T21:58:49.447Z,12.60
2023-05-13T22:01:16.259Z,12.50
2023-05-13T22:03:43.910Z,12.30
2023-05-13T22:06:10.693Z,12.20
2023-05-13T22:08:37.740Z,12.10
2023-05-13T22:11:04.490Z,12.10
2023-05-13T22:13:31.351Z,12.00
2023-05-13T22:15:58.378Z,11.90
2023-05-13T22:18:25.443Z,11.90
2023-05-13T22:20:52.532Z,12.00
2023-05-13T22:23:19.256Z,11.90
2023-05-13T22:25:46.399Z,11.90
2023-05-13T22:28:13.102Z,11.80
2023-05-13T22:30:41.202Z,11.80
2023-05-13T22:33:08.019Z,11.80
2023-05-13T22:35:36.554Z,11.70
2023-05-13T22:38:06.386Z,11.60
2023-05-13T22:40:33.292Z,11.60
2023-05-13T22:43:00.730Z,11.60
2023-05-13T22:45:27.703Z,11.60
2023-05-13T22:47:55.766Z,11.50
2023-05-13T22:50:23.347Z,11.50
2023-05-13T22:52:50.432Z,11.50
2023-05-13T22:55:17.218Z,11.30
2023-05-13T22:57:44.169Z,11.30
2023-05-13T23:00:13.279Z,11.20
2023-05-13T23:02:40.064Z,11.20
2023-05-13T23:05:07.428Z,11.20
2023-05-13T23:07:34.468Z,11.20
2023-05-13T23:10:01.708Z,11.20
2023-05-13T23:12:28.610Z,11.20
2023-05-13T23:14:56.258Z,11.10
2023-05-13T23:17:23.092Z,11.00
2023-05-13T23:19:49.978Z,11.00
2023-05-13T23:22:16.926Z,11.00
2023-05-13T23:24:43.877Z,11.00
2023-05-13T23:27:11.662Z,10.90
2023-05-13T23:29:38.484Z,11.00
2023-05-13T23:32:07.094Z,10.90
2023-05-13T23:34:34.154Z,10.90
2023-05-13T23:37:01.543Z,10.80
2023-05-13T23:39:28.312Z,10.80
2023-05-13T23:41:54.969Z,10.70
2023-05-13T23:44:23.298Z,10.70
2023-05-13T23:46:50.242Z,10.80
2023-05-13T23:49:17.180Z,10.70
2023-05-13T23:51:44.124Z,10.60
2023-05-13T23:54:10.951Z,10.70
2023-05-13T23:56:38.455Z,10.80
2023-05-13T23:59:05.195Z,10.70
